Aztec, NM

10:02 AM MDT on August 31, 2015 (GMT -0600)
Crouch Mesa | | Change Station
CLOSE
Current Station
Personal Weather Station
Location: Aztec, NM
Elevation: 5876 ft
Nearby Weather Stations

Elev 5876 ft 36.77 °N, 108.06 °W | Updated 3 seconds ago

Partly Cloudy
Partly Cloudy
74.1 °F
Feels Like 77 °F
N
0.7
Wind Variable Wind from South
Gusts 3.8 mph

Today
High -- | Low -- °F
--% Chance of Precip.
Yesterday
High -- | Low -- °F
Precip. -- in
6:42 AM 7:42 PM
Waning Gibbous, 95% visible
Pressure 30.04 in
Visibility 10.0 miles
Clouds Scattered Clouds 10000 ft
Heat Index 77 °F
Dew Point 57 °F
Humidity 55%
Rainfall 0.00 in
Snow Depth Not available.
UV 2 out of 12
Pollen 6.90 out of 12
Air Quality Not available.
Flu Activity Not available.
METAR KFMN 311453Z 09003KT 10SM SCT100 20/12 A3020 RMK AO2 SLP172 T02000117 51008
Pressure 30.04 in
Visibility 10.0 miles
Clouds Scattered Clouds 10000 ft
Heat Index 77 °F
Dew Point 57 °F
Humidity 55%
Rainfall 0.00 in
Snow Depth Not available.
UV 2 out of 12
Pollen 6.90 out of 12
Air Quality Not available.
Flu Activity Not available.
METAR KFMN 311453Z 09003KT 10SM SCT100 20/12 A3020 RMK AO2 SLP172 T02000117 51008

10-Day Weather Forecast

×

Almanac

Astronomy

Aug. 31, 2015 Rise Set
Actual Time
Civil Twilight
Nautical Twilight
Astronomical Twilight
Moon
Length of Visible Light
Length of Day
Tomorrow will be .
, % of the Moon is Illuminated

Today's Extremes

State Highs State Lows

Community

WunderPhotos

Upload Photos

1,851,298 photos uploaded!

WunderBlogs® & News

Nearby

Air Quality

  Air Quality AQ Index Pollutant
Not available.

Snow Depth

Station Depth Elevation

Earthquake Activity

City Distance Mag. Time & Date
Minimum magnitude displayed is 2.5.

Coastal Water Temperatures

Place Temperature

Stations

Nearby Weather Stations

Station Location Temp. Windchill Dew Point Humidity Wind Precip. Elev Updated Type